sensor_id;sensor_type;location;lat;lon;timestamp;P1;durP1;ratioP1;P2;durP2;ratioP2
54919;SDS011;63804;53.120;8.764;2023-03-21T00:00:33;26.80;;;19.83;;
54919;SDS011;63804;53.120;8.764;2023-03-21T00:02:59;24.90;;;18.25;;
54919;SDS011;63804;53.120;8.764;2023-03-21T00:05:25;24.80;;;18.92;;
54919;SDS011;63804;53.120;8.764;2023-03-21T00:07:51;26.70;;;19.38;;
54919;SDS011;63804;53.120;8.764;2023-03-21T00:10:23;25.88;;;19.13;;
54919;SDS011;63804;53.120;8.764;2023-03-21T00:12:48;27.23;;;19.58;;
54919;SDS011;63804;53.120;8.764;2023-03-21T00:15:23;22.13;;;17.98;;
54919;SDS011;63804;53.120;8.764;2023-03-21T00:17:50;25.83;;;18.67;;
54919;SDS011;63804;53.120;8.764;2023-03-21T00:20:18;24.70;;;17.92;;
54919;SDS011;63804;53.120;8.764;2023-03-21T00:22:44;23.85;;;17.42;;
54919;SDS011;63804;53.120;8.764;2023-03-21T00:25:10;22.17;;;16.88;;
54919;SDS011;63804;53.120;8.764;2023-03-21T00:27:36;23.85;;;17.08;;
54919;SDS011;63804;53.120;8.764;2023-03-21T00:30:02;22.65;;;17.52;;
54919;SDS011;63804;53.120;8.764;2023-03-21T00:32:29;23.85;;;18.67;;
54919;SDS011;63804;53.120;8.764;2023-03-21T00:34:54;24.08;;;16.67;;
54919;SDS011;63804;53.120;8.764;2023-03-21T00:37:27;24.50;;;17.52;;
54919;SDS011;63804;53.120;8.764;2023-03-21T00:39:53;22.60;;;17.05;;
54919;SDS011;63804;53.120;8.764;2023-03-21T00:42:18;24.15;;;18.33;;
54919;SDS011;63804;53.120;8.764;2023-03-21T00:44:44;24.15;;;18.35;;
54919;SDS011;63804;53.120;8.764;2023-03-21T00:47:12;22.27;;;16.73;;
54919;SDS011;63804;53.120;8.764;2023-03-21T00:49:38;22.15;;;16.98;;
54919;SDS011;63804;53.120;8.764;2023-03-21T00:52:04;25.33;;;18.42;;
54919;SDS011;63804;53.120;8.764;2023-03-21T00:54:32;21.85;;;17.38;;
54919;SDS011;63804;53.120;8.764;2023-03-21T00:56:58;23.50;;;18.17;;
54919;SDS011;63804;53.120;8.764;2023-03-21T00:59:25;24.13;;;17.73;;
54919;SDS011;63804;53.120;8.764;2023-03-21T01:01:51;24.33;;;16.75;;
54919;SDS011;63804;53.120;8.764;2023-03-21T01:04:17;20.45;;;16.15;;
54919;SDS011;63804;53.120;8.764;2023-03-21T01:06:43;24.60;;;18.58;;
54919;SDS011;63804;53.120;8.764;2023-03-21T01:09:11;26.00;;;18.45;;
54919;SDS011;63804;53.120;8.764;2023-03-21T01:11:46;23.15;;;18.48;;
54919;SDS011;63804;53.120;8.764;2023-03-21T01:14:13;22.42;;;17.40;;
54919;SDS011;63804;53.120;8.764;2023-03-21T01:16:39;25.30;;;19.08;;
54919;SDS011;63804;53.120;8.764;2023-03-21T01:19:05;25.63;;;18.77;;
54919;SDS011;63804;53.120;8.764;2023-03-21T01:21:32;24.83;;;18.40;;
54919;SDS011;63804;53.120;8.764;2023-03-21T01:23:58;22.88;;;17.52;;
54919;SDS011;63804;53.120;8.764;2023-03-21T01:26:24;22.52;;;16.70;;
54919;SDS011;63804;53.120;8.764;2023-03-21T01:28:49;23.90;;;17.95;;
54919;SDS011;63804;53.120;8.764;2023-03-21T01:31:15;24.58;;;18.02;;
54919;SDS011;63804;53.120;8.764;2023-03-21T01:33:42;23.55;;;17.58;;
54919;SDS011;63804;53.120;8.764;2023-03-21T01:36:12;24.02;;;17.40;;
54919;SDS011;63804;53.120;8.764;2023-03-21T01:38:41;24.23;;;17.05;;
54919;SDS011;63804;53.120;8.764;2023-03-21T01:41:06;22.10;;;17.33;;
54919;SDS011;63804;53.120;8.764;2023-03-21T01:43:42;23.02;;;17.20;;
54919;SDS011;63804;53.120;8.764;2023-03-21T01:46:11;26.35;;;19.35;;
54919;SDS011;63804;53.120;8.764;2023-03-21T01:49:22;26.05;;;19.08;;
54919;SDS011;63804;53.120;8.764;2023-03-21T01:51:53;25.30;;;18.73;;
54919;SDS011;63804;53.120;8.764;2023-03-21T01:54:27;24.90;;;19.55;;
54919;SDS011;63804;53.120;8.764;2023-03-21T01:56:57;25.73;;;19.83;;
54919;SDS011;63804;53.120;8.764;2023-03-21T01:59:27;26.10;;;19.33;;
54919;SDS011;63804;53.120;8.764;2023-03-21T02:02:00;28.10;;;20.52;;
54919;SDS011;63804;53.120;8.764;2023-03-21T02:04:34;28.55;;;19.45;;
54919;SDS011;63804;53.120;8.764;2023-03-21T02:07:22;26.90;;;18.65;;
54919;SDS011;63804;53.120;8.764;2023-03-21T02:10:00;31.05;;;20.63;;
54919;SDS011;63804;53.120;8.764;2023-03-21T02:12:29;33.47;;;20.63;;
54919;SDS011;63804;53.120;8.764;2023-03-21T02:14:55;30.10;;;20.48;;
54919;SDS011;63804;53.120;8.764;2023-03-21T02:25:33;28.67;;;20.75;;
54919;SDS011;63804;53.120;8.764;2023-03-21T02:39:11;33.20;;;21.60;;
54919;SDS011;63804;53.120;8.764;2023-03-21T02:52:06;35.63;;;22.58;;
54919;SDS011;63804;53.120;8.764;2023-03-21T02:54:36;33.03;;;22.25;;
54919;SDS011;63804;53.120;8.764;2023-03-21T02:57:03;34.63;;;23.88;;
54919;SDS011;63804;53.120;8.764;2023-03-21T02:59:30;41.05;;;24.83;;
54919;SDS011;63804;53.120;8.764;2023-03-21T03:01:56;33.72;;;22.50;;
54919;SDS011;63804;53.120;8.764;2023-03-21T03:04:25;35.45;;;23.65;;
54919;SDS011;63804;53.120;8.764;2023-03-21T03:07:02;35.20;;;21.88;;
54919;SDS011;63804;53.120;8.764;2023-03-21T03:12:36;37.70;;;23.33;;
54919;SDS011;63804;53.120;8.764;2023-03-21T03:18:27;35.30;;;22.15;;
54919;SDS011;63804;53.120;8.764;2023-03-21T03:23:51;35.30;;;22.88;;
54919;SDS011;63804;53.120;8.764;2023-03-21T03:26:24;33.28;;;21.42;;
54919;SDS011;63804;53.120;8.764;2023-03-21T03:28:52;35.20;;;21.85;;
54919;SDS011;63804;53.120;8.764;2023-03-21T03:31:26;37.88;;;23.42;;
54919;SDS011;63804;53.120;8.764;2023-03-21T03:33:57;34.75;;;22.88;;
54919;SDS011;63804;53.120;8.764;2023-03-21T03:36:30;34.53;;;22.83;;
54919;SDS011;63804;53.120;8.764;2023-03-21T03:39:03;38.47;;;23.20;;
54919;SDS011;63804;53.120;8.764;2023-03-21T03:41:34;33.20;;;22.08;;
54919;SDS011;63804;53.120;8.764;2023-03-21T03:44:06;31.58;;;22.63;;
54919;SDS011;63804;53.120;8.764;2023-03-21T03:46:36;30.85;;;21.48;;
54919;SDS011;63804;53.120;8.764;2023-03-21T03:49:11;37.20;;;23.52;;
54919;SDS011;63804;53.120;8.764;2023-03-21T03:54:23;35.05;;;23.23;;
54919;SDS011;63804;53.120;8.764;2023-03-21T03:56:54;35.47;;;24.25;;
54919;SDS011;63804;53.120;8.764;2023-03-21T03:59:20;38.47;;;24.65;;
54919;SDS011;63804;53.120;8.764;2023-03-21T04:01:49;39.83;;;24.23;;
54919;SDS011;63804;53.120;8.764;2023-03-21T04:04:15;41.80;;;25.73;;
54919;SDS011;63804;53.120;8.764;2023-03-21T04:06:44;40.67;;;25.85;;
54919;SDS011;63804;53.120;8.764;2023-03-21T04:09:15;39.50;;;26.00;;
54919;SDS011;63804;53.120;8.764;2023-03-21T04:11:42;36.80;;;23.40;;
54919;SDS011;63804;53.120;8.764;2023-03-21T04:14:08;39.67;;;24.77;;
54919;SDS011;63804;53.120;8.764;2023-03-21T04:16:33;35.83;;;25.45;;
54919;SDS011;63804;53.120;8.764;2023-03-21T04:18:59;36.67;;;24.70;;
54919;SDS011;63804;53.120;8.764;2023-03-21T04:21:25;39.85;;;25.88;;
54919;SDS011;63804;53.120;8.764;2023-03-21T04:23:51;39.10;;;25.42;;
54919;SDS011;63804;53.120;8.764;2023-03-21T04:26:19;38.78;;;24.73;;
54919;SDS011;63804;53.120;8.764;2023-03-21T04:28:46;41.22;;;25.85;;
54919;SDS011;63804;53.120;8.764;2023-03-21T04:31:12;41.38;;;25.88;;
54919;SDS011;63804;53.120;8.764;2023-03-21T04:33:38;44.58;;;26.10;;
54919;SDS011;63804;53.120;8.764;2023-03-21T04:36:04;40.90;;;25.05;;
54919;SDS011;63804;53.120;8.764;2023-03-21T04:38:34;39.03;;;25.17;;
54919;SDS011;63804;53.120;8.764;2023-03-21T04:41:00;44.10;;;27.50;;
54919;SDS011;63804;53.120;8.764;2023-03-21T04:43:27;46.17;;;27.15;;
54919;SDS011;63804;53.120;8.764;2023-03-21T04:45:53;47.40;;;26.88;;
54919;SDS011;63804;53.120;8.764;2023-03-21T04:48:20;42.55;;;25.95;;
54919;SDS011;63804;53.120;8.764;2023-03-21T04:50:49;50.60;;;29.30;;
54919;SDS011;63804;53.120;8.764;2023-03-21T04:53:15;51.28;;;28.23;;
54919;SDS011;63804;53.120;8.764;2023-03-21T04:55:41;48.55;;;28.23;;
54919;SDS011;63804;53.120;8.764;2023-03-21T04:58:06;52.08;;;28.38;;
54919;SDS011;63804;53.120;8.764;2023-03-21T05:00:32;59.60;;;30.33;;
54919;SDS011;63804;53.120;8.764;2023-03-21T05:03:02;49.00;;;27.10;;
54919;SDS011;63804;53.120;8.764;2023-03-21T05:05:36;52.25;;;28.10;;
54919;SDS011;63804;53.120;8.764;2023-03-21T05:08:02;49.15;;;26.95;;
54919;SDS011;63804;53.120;8.764;2023-03-21T05:10:29;53.70;;;29.60;;
54919;SDS011;63804;53.120;8.764;2023-03-21T05:12:54;51.92;;;29.50;;
54919;SDS011;63804;53.120;8.764;2023-03-21T05:15:20;53.05;;;30.13;;
54919;SDS011;63804;53.120;8.764;2023-03-21T05:17:45;53.33;;;28.42;;
54919;SDS011;63804;53.120;8.764;2023-03-21T05:20:12;52.97;;;28.02;;
54919;SDS011;63804;53.120;8.764;2023-03-21T05:22:41;53.92;;;28.67;;
54919;SDS011;63804;53.120;8.764;2023-03-21T05:25:10;46.20;;;24.48;;
54919;SDS011;63804;53.120;8.764;2023-03-21T05:27:37;47.65;;;27.98;;
54919;SDS011;63804;53.120;8.764;2023-03-21T05:32:42;49.20;;;28.38;;
54919;SDS011;63804;53.120;8.764;2023-03-21T05:35:08;51.28;;;27.65;;
54919;SDS011;63804;53.120;8.764;2023-03-21T05:37:34;52.47;;;26.73;;
54919;SDS011;63804;53.120;8.764;2023-03-21T05:40:00;51.63;;;27.17;;
54919;SDS011;63804;53.120;8.764;2023-03-21T05:42:25;55.38;;;27.77;;
54919;SDS011;63804;53.120;8.764;2023-03-21T05:44:51;47.72;;;27.17;;
54919;SDS011;63804;53.120;8.764;2023-03-21T05:47:16;48.75;;;27.38;;
54919;SDS011;63804;53.120;8.764;2023-03-21T05:49:43;48.80;;;26.70;;
54919;SDS011;63804;53.120;8.764;2023-03-21T05:52:09;47.63;;;26.17;;
54919;SDS011;63804;53.120;8.764;2023-03-21T05:54:34;46.80;;;25.50;;
54919;SDS011;63804;53.120;8.764;2023-03-21T05:57:00;51.53;;;26.27;;
54919;SDS011;63804;53.120;8.764;2023-03-21T05:59:27;47.80;;;25.85;;
54919;SDS011;63804;53.120;8.764;2023-03-21T06:01:52;46.60;;;24.95;;
54919;SDS011;63804;53.120;8.764;2023-03-21T06:04:18;53.92;;;28.50;;
54919;SDS011;63804;53.120;8.764;2023-03-21T06:06:43;54.00;;;26.63;;
54919;SDS011;63804;53.120;8.764;2023-03-21T06:09:09;48.50;;;25.67;;
54919;SDS011;63804;53.120;8.764;2023-03-21T06:11:35;48.83;;;26.08;;
54919;SDS011;63804;53.120;8.764;2023-03-21T06:14:02;50.65;;;25.63;;
54919;SDS011;63804;53.120;8.764;2023-03-21T06:16:27;54.15;;;26.02;;
54919;SDS011;63804;53.120;8.764;2023-03-21T06:18:54;54.55;;;26.50;;
54919;SDS011;63804;53.120;8.764;2023-03-21T06:21:19;54.45;;;26.15;;
54919;SDS011;63804;53.120;8.764;2023-03-21T06:23:45;54.30;;;26.48;;
54919;SDS011;63804;53.120;8.764;2023-03-21T06:26:11;46.45;;;24.77;;
54919;SDS011;63804;53.120;8.764;2023-03-21T06:28:37;48.20;;;25.27;;
54919;SDS011;63804;53.120;8.764;2023-03-21T06:31:03;51.97;;;25.75;;
54919;SDS011;63804;53.120;8.764;2023-03-21T06:33:29;46.95;;;24.40;;
54919;SDS011;63804;53.120;8.764;2023-03-21T06:36:02;48.83;;;24.88;;
54919;SDS011;63804;53.120;8.764;2023-03-21T06:38:27;49.95;;;26.23;;
54919;SDS011;63804;53.120;8.764;2023-03-21T06:40:53;47.58;;;25.63;;
54919;SDS011;63804;53.120;8.764;2023-03-21T06:43:18;44.42;;;24.30;;
54919;SDS011;63804;53.120;8.764;2023-03-21T06:45:44;47.40;;;25.10;;
54919;SDS011;63804;53.120;8.764;2023-03-21T06:48:09;41.00;;;23.83;;
54919;SDS011;63804;53.120;8.764;2023-03-21T06:50:36;42.58;;;22.95;;
54919;SDS011;63804;53.120;8.764;2023-03-21T06:53:01;45.38;;;24.33;;
54919;SDS011;63804;53.120;8.764;2023-03-21T06:55:27;41.40;;;22.27;;
54919;SDS011;63804;53.120;8.764;2023-03-21T06:57:53;46.80;;;23.90;;
54919;SDS011;63804;53.120;8.764;2023-03-21T07:00:22;40.50;;;23.30;;
54919;SDS011;63804;53.120;8.764;2023-03-21T07:02:48;41.00;;;22.50;;
54919;SDS011;63804;53.120;8.764;2023-03-21T07:05:14;46.13;;;23.10;;
54919;SDS011;63804;53.120;8.764;2023-03-21T07:07:40;40.72;;;21.85;;
54919;SDS011;63804;53.120;8.764;2023-03-21T07:10:06;40.65;;;22.20;;
54919;SDS011;63804;53.120;8.764;2023-03-21T07:12:33;34.92;;;21.35;;
54919;SDS011;63804;53.120;8.764;2023-03-21T07:15:00;39.33;;;21.75;;
54919;SDS011;63804;53.120;8.764;2023-03-21T07:17:27;37.13;;;21.00;;
54919;SDS011;63804;53.120;8.764;2023-03-21T07:19:52;32.22;;;21.05;;
54919;SDS011;63804;53.120;8.764;2023-03-21T07:22:18;35.38;;;20.00;;
54919;SDS011;63804;53.120;8.764;2023-03-21T07:24:44;36.63;;;21.92;;
54919;SDS011;63804;53.120;8.764;2023-03-21T07:27:16;31.48;;;20.13;;
54919;SDS011;63804;53.120;8.764;2023-03-21T07:29:50;32.38;;;20.17;;
54919;SDS011;63804;53.120;8.764;2023-03-21T07:32:15;30.73;;;19.38;;
54919;SDS011;63804;53.120;8.764;2023-03-21T07:34:41;32.65;;;20.08;;
54919;SDS011;63804;53.120;8.764;2023-03-21T07:37:06;32.63;;;19.80;;
54919;SDS011;63804;53.120;8.764;2023-03-21T07:39:32;32.75;;;19.23;;
54919;SDS011;63804;53.120;8.764;2023-03-21T07:41:59;33.38;;;19.70;;
54919;SDS011;63804;53.120;8.764;2023-03-21T07:44:25;34.33;;;18.77;;
54919;SDS011;63804;53.120;8.764;2023-03-21T07:46:51;33.88;;;20.25;;
54919;SDS011;63804;53.120;8.764;2023-03-21T07:49:16;35.13;;;21.35;;
54919;SDS011;63804;53.120;8.764;2023-03-21T07:51:42;32.63;;;19.00;;
54919;SDS011;63804;53.120;8.764;2023-03-21T07:54:07;33.50;;;19.08;;
54919;SDS011;63804;53.120;8.764;2023-03-21T07:56:33;30.65;;;17.42;;
54919;SDS011;63804;53.120;8.764;2023-03-21T07:58:59;31.20;;;17.65;;
54919;SDS011;63804;53.120;8.764;2023-03-21T08:01:24;29.92;;;18.48;;
54919;SDS011;63804;53.120;8.764;2023-03-21T08:03:50;32.45;;;17.95;;
54919;SDS011;63804;53.120;8.764;2023-03-21T08:06:21;31.60;;;18.55;;
54919;SDS011;63804;53.120;8.764;2023-03-21T08:08:47;32.85;;;18.08;;
54919;SDS011;63804;53.120;8.764;2023-03-21T08:11:13;32.67;;;18.92;;
54919;SDS011;63804;53.120;8.764;2023-03-21T08:13:38;28.75;;;17.92;;
54919;SDS011;63804;53.120;8.764;2023-03-21T08:16:04;32.30;;;17.95;;
54919;SDS011;63804;53.120;8.764;2023-03-21T08:18:30;28.52;;;18.15;;
54919;SDS011;63804;53.120;8.764;2023-03-21T08:20:56;30.73;;;18.77;;
54919;SDS011;63804;53.120;8.764;2023-03-21T08:23:23;33.08;;;18.15;;
54919;SDS011;63804;53.120;8.764;2023-03-21T08:25:49;31.00;;;18.42;;
54919;SDS011;63804;53.120;8.764;2023-03-21T08:28:19;31.90;;;18.48;;
54919;SDS011;63804;53.120;8.764;2023-03-21T08:30:45;36.90;;;20.00;;
54919;SDS011;63804;53.120;8.764;2023-03-21T08:33:12;31.90;;;19.17;;
54919;SDS011;63804;53.120;8.764;2023-03-21T08:35:37;30.77;;;18.30;;
54919;SDS011;63804;53.120;8.764;2023-03-21T08:38:03;31.90;;;18.25;;
54919;SDS011;63804;53.120;8.764;2023-03-21T08:40:29;29.45;;;17.95;;
54919;SDS011;63804;53.120;8.764;2023-03-21T08:42:55;29.23;;;17.95;;
54919;SDS011;63804;53.120;8.764;2023-03-21T08:45:21;32.05;;;18.20;;
54919;SDS011;63804;53.120;8.764;2023-03-21T08:47:47;31.85;;;16.98;;
54919;SDS011;63804;53.120;8.764;2023-03-21T08:50:17;28.92;;;17.27;;
54919;SDS011;63804;53.120;8.764;2023-03-21T08:52:45;30.05;;;18.20;;
54919;SDS011;63804;53.120;8.764;2023-03-21T08:55:11;27.88;;;16.58;;
54919;SDS011;63804;53.120;8.764;2023-03-21T08:57:37;33.53;;;17.95;;
54919;SDS011;63804;53.120;8.764;2023-03-21T09:00:04;28.60;;;17.33;;
54919;SDS011;63804;53.120;8.764;2023-03-21T09:02:35;29.40;;;16.05;;
54919;SDS011;63804;53.120;8.764;2023-03-21T09:05:01;26.17;;;15.90;;
54919;SDS011;63804;53.120;8.764;2023-03-21T09:07:26;26.45;;;15.85;;
54919;SDS011;63804;53.120;8.764;2023-03-21T09:09:52;26.25;;;16.52;;
54919;SDS011;63804;53.120;8.764;2023-03-21T09:12:17;26.85;;;16.45;;
54919;SDS011;63804;53.120;8.764;2023-03-21T09:14:43;26.25;;;15.45;;
54919;SDS011;63804;53.120;8.764;2023-03-21T09:17:09;24.08;;;15.75;;
54919;SDS011;63804;53.120;8.764;2023-03-21T09:19:35;24.30;;;15.10;;
54919;SDS011;63804;53.120;8.764;2023-03-21T09:22:02;24.77;;;15.07;;
54919;SDS011;63804;53.120;8.764;2023-03-21T09:24:41;21.95;;;14.43;;
54919;SDS011;63804;53.120;8.764;2023-03-21T09:27:10;21.38;;;14.25;;
54919;SDS011;63804;53.120;8.764;2023-03-21T09:29:35;22.88;;;13.38;;
54919;SDS011;63804;53.120;8.764;2023-03-21T09:32:01;21.45;;;12.93;;
54919;SDS011;63804;53.120;8.764;2023-03-21T09:34:28;22.55;;;13.55;;
54919;SDS011;63804;53.120;8.764;2023-03-21T09:36:53;20.85;;;13.27;;
54919;SDS011;63804;53.120;8.764;2023-03-21T09:39:21;19.75;;;12.77;;
54919;SDS011;63804;53.120;8.764;2023-03-21T09:44:44;17.27;;;11.43;;
54919;SDS011;63804;53.120;8.764;2023-03-21T09:49:53;18.05;;;11.23;;
54919;SDS011;63804;53.120;8.764;2023-03-21T09:52:24;18.17;;;11.15;;
54919;SDS011;63804;53.120;8.764;2023-03-21T09:54:56;18.27;;;10.80;;
54919;SDS011;63804;53.120;8.764;2023-03-21T09:57:30;17.48;;;11.05;;
54919;SDS011;63804;53.120;8.764;2023-03-21T10:00:02;21.20;;;10.95;;
54919;SDS011;63804;53.120;8.764;2023-03-21T10:02:41;18.10;;;11.43;;
54919;SDS011;63804;53.120;8.764;2023-03-21T10:05:21;20.50;;;12.90;;
54919;SDS011;63804;53.120;8.764;2023-03-21T10:10:29;21.65;;;12.25;;
54919;SDS011;63804;53.120;8.764;2023-03-21T10:12:59;21.45;;;11.77;;
54919;SDS011;63804;53.120;8.764;2023-03-21T10:15:25;21.23;;;11.65;;
54919;SDS011;63804;53.120;8.764;2023-03-21T10:17:53;20.92;;;12.10;;
54919;SDS011;63804;53.120;8.764;2023-03-21T10:20:32;20.52;;;10.70;;
54919;SDS011;63804;53.120;8.764;2023-03-21T10:22:59;18.08;;;11.13;;
54919;SDS011;63804;53.120;8.764;2023-03-21T10:26:02;21.45;;;11.40;;
54919;SDS011;63804;53.120;8.764;2023-03-21T10:28:24;18.80;;;11.93;;
54919;SDS011;63804;53.120;8.764;2023-03-21T10:30:53;23.58;;;13.27;;
54919;SDS011;63804;53.120;8.764;2023-03-21T10:33:23;20.23;;;11.57;;
54919;SDS011;63804;53.120;8.764;2023-03-21T10:35:55;24.67;;;11.40;;
54919;SDS011;63804;53.120;8.764;2023-03-21T10:38:26;18.98;;;11.18;;
54919;SDS011;63804;53.120;8.764;2023-03-21T10:40:52;20.17;;;11.52;;
54919;SDS011;63804;53.120;8.764;2023-03-21T10:45:50;18.83;;;10.13;;
54919;SDS011;63804;53.120;8.764;2023-03-21T10:48:16;17.70;;;9.68;;
54919;SDS011;63804;53.120;8.764;2023-03-21T10:50:41;18.17;;;10.65;;
54919;SDS011;63804;53.120;8.764;2023-03-21T10:53:13;17.85;;;10.65;;
54919;SDS011;63804;53.120;8.764;2023-03-21T10:55:42;22.55;;;10.57;;
54919;SDS011;63804;53.120;8.764;2023-03-21T10:58:15;18.55;;;11.23;;
54919;SDS011;63804;53.120;8.764;2023-03-21T11:00:55;17.83;;;10.52;;
54919;SDS011;63804;53.120;8.764;2023-03-21T11:06:07;19.50;;;10.50;;
54919;SDS011;63804;53.120;8.764;2023-03-21T11:08:40;20.35;;;10.73;;
54919;SDS011;63804;53.120;8.764;2023-03-21T11:11:25;20.40;;;10.25;;
54919;SDS011;63804;53.120;8.764;2023-03-21T11:13:56;19.67;;;10.10;;
54919;SDS011;63804;53.120;8.764;2023-03-21T11:16:34;21.23;;;10.65;;
54919;SDS011;63804;53.120;8.764;2023-03-21T11:19:11;19.73;;;10.68;;
54919;SDS011;63804;53.120;8.764;2023-03-21T11:21:51;19.65;;;9.60;;
54919;SDS011;63804;53.120;8.764;2023-03-21T11:24:17;16.33;;;9.35;;
54919;SDS011;63804;53.120;8.764;2023-03-21T11:26:44;17.92;;;10.00;;
54919;SDS011;63804;53.120;8.764;2023-03-21T11:31:50;17.92;;;11.20;;
54919;SDS011;63804;53.120;8.764;2023-03-21T11:34:25;18.50;;;9.32;;
54919;SDS011;63804;53.120;8.764;2023-03-21T11:36:57;21.02;;;10.35;;
54919;SDS011;63804;53.120;8.764;2023-03-21T11:39:42;19.33;;;9.98;;
54919;SDS011;63804;53.120;8.764;2023-03-21T11:42:25;19.63;;;10.38;;
54919;SDS011;63804;53.120;8.764;2023-03-21T11:45:26;18.48;;;10.90;;
54919;SDS011;63804;53.120;8.764;2023-03-21T11:47:49;21.17;;;10.73;;
54919;SDS011;63804;53.120;8.764;2023-03-21T11:50:36;23.13;;;12.70;;
54919;SDS011;63804;53.120;8.764;2023-03-21T11:56:21;22.98;;;14.40;;
54919;SDS011;63804;53.120;8.764;2023-03-21T12:01:44;19.77;;;9.93;;
54919;SDS011;63804;53.120;8.764;2023-03-21T12:07:15;20.45;;;10.60;;
54919;SDS011;63804;53.120;8.764;2023-03-21T12:12:47;21.27;;;11.10;;
54919;SDS011;63804;53.120;8.764;2023-03-21T12:15:26;23.88;;;10.77;;
54919;SDS011;63804;53.120;8.764;2023-03-21T12:21:09;21.45;;;11.35;;
54919;SDS011;63804;53.120;8.764;2023-03-21T12:26:28;20.17;;;12.32;;
54919;SDS011;63804;53.120;8.764;2023-03-21T12:29:12;22.42;;;13.55;;
54919;SDS011;63804;53.120;8.764;2023-03-21T12:36:50;23.83;;;14.50;;
54919;SDS011;63804;53.120;8.764;2023-03-21T12:39:28;25.35;;;15.13;;
54919;SDS011;63804;53.120;8.764;2023-03-21T12:44:48;25.52;;;16.15;;
54919;SDS011;63804;53.120;8.764;2023-03-21T12:49:53;22.73;;;15.45;;
54919;SDS011;63804;53.120;8.764;2023-03-21T12:52:21;23.42;;;15.38;;
54919;SDS011;63804;53.120;8.764;2023-03-21T12:54:51;26.45;;;16.67;;
54919;SDS011;63804;53.120;8.764;2023-03-21T12:57:25;25.13;;;17.20;;
54919;SDS011;63804;53.120;8.764;2023-03-21T12:59:58;22.67;;;15.27;;
54919;SDS011;63804;53.120;8.764;2023-03-21T13:02:28;24.45;;;16.17;;
54919;SDS011;63804;53.120;8.764;2023-03-21T13:05:04;23.30;;;16.05;;
54919;SDS011;63804;53.120;8.764;2023-03-21T13:07:42;26.13;;;15.88;;
54919;SDS011;63804;53.120;8.764;2023-03-21T13:10:16;22.85;;;16.20;;
54919;SDS011;63804;53.120;8.764;2023-03-21T13:18:28;24.70;;;15.95;;
54919;SDS011;63804;53.120;8.764;2023-03-21T13:21:16;22.40;;;15.52;;
54919;SDS011;63804;53.120;8.764;2023-03-21T13:23:54;21.13;;;15.43;;
54919;SDS011;63804;53.120;8.764;2023-03-21T13:26:32;18.88;;;14.15;;
54919;SDS011;63804;53.120;8.764;2023-03-21T13:29:00;22.25;;;15.27;;
54919;SDS011;63804;53.120;8.764;2023-03-21T13:31:26;21.63;;;15.65;;
54919;SDS011;63804;53.120;8.764;2023-03-21T13:33:53;21.50;;;14.48;;
54919;SDS011;63804;53.120;8.764;2023-03-21T13:36:27;25.05;;;17.20;;
54919;SDS011;63804;53.120;8.764;2023-03-21T13:38:58;25.67;;;18.05;;
54919;SDS011;63804;53.120;8.764;2023-03-21T13:41:33;24.60;;;16.88;;
54919;SDS011;63804;53.120;8.764;2023-03-21T13:53:59;24.23;;;15.73;;
54919;SDS011;63804;53.120;8.764;2023-03-21T13:59:09;22.15;;;13.18;;
54919;SDS011;63804;53.120;8.764;2023-03-21T14:01:37;19.40;;;13.02;;
54919;SDS011;63804;53.120;8.764;2023-03-21T14:04:23;19.65;;;11.90;;
54919;SDS011;63804;53.120;8.764;2023-03-21T14:06:55;19.10;;;12.32;;
54919;SDS011;63804;53.120;8.764;2023-03-21T14:09:28;17.23;;;11.98;;
54919;SDS011;63804;53.120;8.764;2023-03-21T14:11:54;20.25;;;12.25;;
54919;SDS011;63804;53.120;8.764;2023-03-21T14:14:22;20.00;;;12.68;;
54919;SDS011;63804;53.120;8.764;2023-03-21T14:16:53;18.33;;;12.95;;
54919;SDS011;63804;53.120;8.764;2023-03-21T14:19:19;16.65;;;11.82;;
54919;SDS011;63804;53.120;8.764;2023-03-21T14:21:52;16.75;;;12.10;;
54919;SDS011;63804;53.120;8.764;2023-03-21T14:24:18;21.95;;;12.63;;
54919;SDS011;63804;53.120;8.764;2023-03-21T14:26:51;19.05;;;13.10;;
54919;SDS011;63804;53.120;8.764;2023-03-21T14:29:21;21.75;;;13.35;;
54919;SDS011;63804;53.120;8.764;2023-03-21T14:31:50;20.52;;;12.90;;
54919;SDS011;63804;53.120;8.764;2023-03-21T14:34:16;19.02;;;12.07;;
54919;SDS011;63804;53.120;8.764;2023-03-21T14:36:42;18.15;;;12.30;;
54919;SDS011;63804;53.120;8.764;2023-03-21T14:39:42;19.15;;;12.65;;
54919;SDS011;63804;53.120;8.764;2023-03-21T14:42:09;19.67;;;13.15;;
54919;SDS011;63804;53.120;8.764;2023-03-21T14:44:40;19.38;;;13.05;;
54919;SDS011;63804;53.120;8.764;2023-03-21T14:47:15;18.98;;;13.23;;
54919;SDS011;63804;53.120;8.764;2023-03-21T14:49:42;22.55;;;14.48;;
54919;SDS011;63804;53.120;8.764;2023-03-21T14:52:12;20.50;;;13.95;;
54919;SDS011;63804;53.120;8.764;2023-03-21T14:54:43;20.33;;;14.02;;
54919;SDS011;63804;53.120;8.764;2023-03-21T14:57:12;22.30;;;14.70;;
54919;SDS011;63804;53.120;8.764;2023-03-21T14:59:42;22.08;;;15.07;;
54919;SDS011;63804;53.120;8.764;2023-03-21T15:02:16;25.63;;;16.13;;
54919;SDS011;63804;53.120;8.764;2023-03-21T15:04:48;19.65;;;15.75;;
54919;SDS011;63804;53.120;8.764;2023-03-21T15:07:24;21.45;;;16.15;;
54919;SDS011;63804;53.120;8.764;2023-03-21T15:09:56;23.58;;;15.68;;
54919;SDS011;63804;53.120;8.764;2023-03-21T15:12:25;20.48;;;15.10;;
54919;SDS011;63804;53.120;8.764;2023-03-21T15:14:50;22.35;;;15.43;;
54919;SDS011;63804;53.120;8.764;2023-03-21T15:17:23;21.53;;;16.53;;
54919;SDS011;63804;53.120;8.764;2023-03-21T15:19:50;21.77;;;15.65;;
54919;SDS011;63804;53.120;8.764;2023-03-21T15:22:29;23.88;;;16.77;;
54919;SDS011;63804;53.120;8.764;2023-03-21T15:25:00;21.23;;;15.32;;
54919;SDS011;63804;53.120;8.764;2023-03-21T15:27:31;20.90;;;15.60;;
54919;SDS011;63804;53.120;8.764;2023-03-21T15:30:01;21.65;;;15.13;;
54919;SDS011;63804;53.120;8.764;2023-03-21T15:32:28;20.77;;;15.13;;
54919;SDS011;63804;53.120;8.764;2023-03-21T15:34:54;21.52;;;14.73;;
54919;SDS011;63804;53.120;8.764;2023-03-21T15:37:31;19.65;;;13.82;;
54919;SDS011;63804;53.120;8.764;2023-03-21T15:42:38;22.25;;;14.18;;
54919;SDS011;63804;53.120;8.764;2023-03-21T15:45:16;20.70;;;14.07;;
54919;SDS011;63804;53.120;8.764;2023-03-21T15:50:26;20.08;;;12.98;;
54919;SDS011;63804;53.120;8.764;2023-03-21T15:52:57;17.83;;;12.80;;
54919;SDS011;63804;53.120;8.764;2023-03-21T15:55:29;18.25;;;12.65;;
54919;SDS011;63804;53.120;8.764;2023-03-21T15:58:05;18.58;;;13.40;;
54919;SDS011;63804;53.120;8.764;2023-03-21T16:00:41;20.98;;;13.30;;
54919;SDS011;63804;53.120;8.764;2023-03-21T16:03:14;18.33;;;12.32;;
54919;SDS011;63804;53.120;8.764;2023-03-21T16:08:32;23.77;;;15.52;;
54919;SDS011;63804;53.120;8.764;2023-03-21T16:11:15;16.88;;;12.43;;
54919;SDS011;63804;53.120;8.764;2023-03-21T16:13:43;16.25;;;11.68;;
54919;SDS011;63804;53.120;8.764;2023-03-21T16:16:20;19.75;;;12.13;;
54919;SDS011;63804;53.120;8.764;2023-03-21T16:18:50;20.02;;;11.85;;
54919;SDS011;63804;53.120;8.764;2023-03-21T16:21:17;18.95;;;11.90;;
54919;SDS011;63804;53.120;8.764;2023-03-21T16:23:46;18.70;;;12.40;;
54919;SDS011;63804;53.120;8.764;2023-03-21T16:26:13;20.05;;;12.05;;
54919;SDS011;63804;53.120;8.764;2023-03-21T16:28:49;17.27;;;11.57;;